createdAt,value
2019-05-21T00:00:12.319Z,15.50
2019-05-21T00:02:41.809Z,15.50
2019-05-21T00:05:11.638Z,15.60
2019-05-21T00:07:41.158Z,15.70
2019-05-21T00:10:10.778Z,15.70
2019-05-21T00:12:40.082Z,15.20
2019-05-21T00:15:10.600Z,15.30
2019-05-21T00:17:39.944Z,15.30
2019-05-21T00:20:09.595Z,15.30
2019-05-21T00:22:39.058Z,15.30
2019-05-21T00:25:08.926Z,15.30
2019-05-21T00:27:38.353Z,15.40
2019-05-21T00:30:44.238Z,15.30
2019-05-21T00:33:49.859Z,15.40
2019-05-21T00:36:57.905Z,15.40
2019-05-21T00:40:03.946Z,15.40
2019-05-21T00:42:36.396Z,15.30
2019-05-21T00:45:09.103Z,15.10
2019-05-21T00:47:38.443Z,15.10
2019-05-21T00:50:09.408Z,15.20
2019-05-21T00:52:38.706Z,15.30
2019-05-21T00:55:08.361Z,15.30
2019-05-21T00:57:37.672Z,15.30
2019-05-21T01:00:08.094Z,15.30
2019-05-21T01:02:37.602Z,15.20
2019-05-21T01:05:07.027Z,15.30
2019-05-21T01:07:36.501Z,15.20
2019-05-21T01:10:07.071Z,15.10
2019-05-21T01:12:36.371Z,15.20
2019-05-21T01:15:09.310Z,15.20
2019-05-21T01:17:38.683Z,15.20
2019-05-21T01:20:08.167Z,15.10
2019-05-21T01:22:37.567Z,15.10
2019-05-21T01:25:06.958Z,15.00
2019-05-21T01:27:36.366Z,14.90
2019-05-21T01:30:06.613Z,15.00
2019-05-21T01:32:35.924Z,15.00
2019-05-21T01:35:16.620Z,15.20
2019-05-21T01:37:39.282Z,15.30
2019-05-21T01:40:08.793Z,15.40
2019-05-21T01:42:38.202Z,15.50
2019-05-21T01:45:07.986Z,15.30
2019-05-21T01:47:37.442Z,15.30
2019-05-21T01:50:06.911Z,15.20
2019-05-21T01:52:36.245Z,15.10
2019-05-21T01:55:06.578Z,15.00
2019-05-21T01:57:36.009Z,15.00
2019-05-21T02:00:07.028Z,15.10
2019-05-21T02:02:36.488Z,15.10
2019-05-21T02:05:07.062Z,15.20
2019-05-21T02:07:37.617Z,15.20
2019-05-21T02:10:07.489Z,15.30
2019-05-21T02:12:36.803Z,15.40
2019-05-21T02:15:07.034Z,15.40
2019-05-21T02:17:36.447Z,15.20
2019-05-21T02:20:06.509Z,15.10
2019-05-21T02:22:35.954Z,14.90
2019-05-21T02:25:06.993Z,14.90
2019-05-21T02:27:36.584Z,15.10
2019-05-21T02:30:10.073Z,15.20
2019-05-21T02:32:39.510Z,15.30
2019-05-21T02:35:09.376Z,15.10
2019-05-21T02:37:38.698Z,15.30
2019-05-21T02:40:10.311Z,15.40
2019-05-21T02:42:55.440Z,15.20
2019-05-21T02:45:24.744Z,15.20
2019-05-21T02:47:54.135Z,15.30
2019-05-21T02:50:23.606Z,15.30
2019-05-21T02:52:53.648Z,15.30
2019-05-21T02:55:22.931Z,15.20
2019-05-21T02:57:52.252Z,15.20
2019-05-21T03:00:38.625Z,15.20
2019-05-21T03:03:08.024Z,15.30
2019-05-21T03:05:37.321Z,15.40
2019-05-21T03:08:06.640Z,15.30
2019-05-21T03:10:36.027Z,15.30
2019-05-21T03:13:05.512Z,15.40
2019-05-21T03:15:34.839Z,15.20
2019-05-21T03:18:04.227Z,15.10
2019-05-21T03:20:33.529Z,15.20
2019-05-21T03:23:02.965Z,15.30
2019-05-21T03:25:32.255Z,15.30
2019-05-21T03:28:01.583Z,15.10
2019-05-21T03:30:30.893Z,15.10
2019-05-21T03:33:00.224Z,15.20
2019-05-21T03:35:29.595Z,15.20
2019-05-21T03:37:58.891Z,15.20
2019-05-21T03:40:28.207Z,15.30
2019-05-21T03:42:57.532Z,15.20
2019-05-21T03:45:26.830Z,15.20
2019-05-21T03:47:56.163Z,15.30
2019-05-21T03:50:25.558Z,15.40
2019-05-21T03:52:54.860Z,15.30
2019-05-21T03:55:24.157Z,15.20
2019-05-21T03:57:53.477Z,15.20
2019-05-21T04:00:22.814Z,14.90
2019-05-21T04:02:52.113Z,14.90
2019-05-21T04:05:23.914Z,15.00
2019-05-21T04:07:54.386Z,15.10
2019-05-21T04:10:24.988Z,14.90
2019-05-21T04:13:08.284Z,14.80
2019-05-21T04:15:57.562Z,14.80
2019-05-21T04:18:40.103Z,14.60
2019-05-21T04:21:09.522Z,14.60
2019-05-21T04:23:38.891Z,14.50
2019-05-21T04:26:09.159Z,14.50
2019-05-21T04:28:38.493Z,14.40
2019-05-21T04:31:07.787Z,14.50
2019-05-21T04:33:37.160Z,14.70
2019-05-21T04:36:06.530Z,14.70
2019-05-21T04:38:35.963Z,14.70
2019-05-21T04:41:05.254Z,14.70
2019-05-21T04:43:34.613Z,14.80
2019-05-21T04:46:04.000Z,14.90
2019-05-21T04:48:33.327Z,14.90
2019-05-21T04:51:02.634Z,14.80
2019-05-21T04:53:31.956Z,14.80
2019-05-21T04:56:01.257Z,14.70
2019-05-21T04:58:30.627Z,14.80
2019-05-21T05:00:59.960Z,14.70
2019-05-21T05:03:29.303Z,14.80
2019-05-21T05:05:58.675Z,14.80
2019-05-21T05:08:27.987Z,14.70
2019-05-21T05:10:57.337Z,14.40
2019-05-21T05:13:26.671Z,14.40
2019-05-21T05:15:55.960Z,14.40
2019-05-21T05:18:25.271Z,14.40
2019-05-21T05:20:54.602Z,14.40
2019-05-21T05:23:23.978Z,14.60
2019-05-21T05:25:53.363Z,14.70
2019-05-21T05:28:22.702Z,14.60
2019-05-21T05:30:52.144Z,14.50
2019-05-21T05:33:21.540Z,14.30
2019-05-21T05:35:50.840Z,14.30
2019-05-21T05:38:20.146Z,14.30
2019-05-21T05:40:49.454Z,14.30
2019-05-21T05:43:20.611Z,14.10
2019-05-21T05:45:49.782Z,14.10
2019-05-21T05:48:19.274Z,14.10
2019-05-21T05:51:02.131Z,14.10
2019-05-21T05:53:33.087Z,14.00
2019-05-21T05:56:03.004Z,14.00
2019-05-21T05:58:32.327Z,14.10
2019-05-21T06:01:01.628Z,14.00
2019-05-21T06:03:30.971Z,13.80
2019-05-21T06:06:00.399Z,13.90
2019-05-21T06:08:29.727Z,14.00
2019-05-21T06:10:59.048Z,14.10
2019-05-21T06:13:28.347Z,14.20
2019-05-21T06:15:57.655Z,14.30
2019-05-21T06:18:26.984Z,14.30
2019-05-21T06:20:56.287Z,14.50
2019-05-21T06:23:25.601Z,14.60
2019-05-21T06:25:55.924Z,14.60
2019-05-21T06:28:25.223Z,14.50
2019-05-21T06:30:54.815Z,14.60
2019-05-21T06:33:24.474Z,14.40
2019-05-21T06:35:53.829Z,14.40
2019-05-21T06:38:23.123Z,14.40
2019-05-21T06:40:52.423Z,14.40
2019-05-21T06:43:21.766Z,14.50
2019-05-21T06:45:51.075Z,14.50
2019-05-21T06:48:20.374Z,14.50
2019-05-21T06:50:49.709Z,14.50
2019-05-21T06:53:19.155Z,14.60
2019-05-21T06:55:48.481Z,14.60
2019-05-21T06:58:17.856Z,14.50
2019-05-21T07:00:47.278Z,14.60
2019-05-21T07:03:16.575Z,14.60
2019-05-21T07:05:58.239Z,14.50
2019-05-21T07:08:33.198Z,14.50
2019-05-21T07:10:47.907Z,14.60
2019-05-21T07:13:17.466Z,14.50
2019-05-21T07:15:46.786Z,14.50
2019-05-21T07:18:16.079Z,14.30
2019-05-21T07:20:45.396Z,14.50
2019-05-21T07:23:14.702Z,14.50
2019-05-21T07:25:44.078Z,14.50
2019-05-21T07:28:13.385Z,14.30
2019-05-21T07:30:42.786Z,14.40
2019-05-21T07:33:12.182Z,14.50
2019-05-21T07:35:41.550Z,14.70
2019-05-21T07:38:11.023Z,14.90
2019-05-21T07:40:40.467Z,14.90
2019-05-21T07:43:09.882Z,14.90
2019-05-21T07:45:39.196Z,14.90
2019-05-21T07:48:08.497Z,14.70
2019-05-21T07:50:37.802Z,14.70
2019-05-21T07:53:07.163Z,14.80
2019-05-21T07:55:36.978Z,14.90
2019-05-21T07:58:06.290Z,14.90
2019-05-21T08:00:35.610Z,14.80
2019-05-21T08:03:04.988Z,14.90
2019-05-21T08:05:34.309Z,14.90
2019-05-21T08:08:04.115Z,14.90
2019-05-21T08:10:33.498Z,15.10
2019-05-21T08:13:03.000Z,14.90
2019-05-21T08:15:33.284Z,14.90
2019-05-21T08:18:02.678Z,15.00
2019-05-21T08:20:31.957Z,15.00
2019-05-21T08:23:01.262Z,15.10
2019-05-21T08:25:30.640Z,15.30
2019-05-21T08:27:59.979Z,15.30
2019-05-21T08:30:29.259Z,15.40
2019-05-21T08:32:58.578Z,15.20
2019-05-21T08:35:27.882Z,14.90
2019-05-21T08:37:57.211Z,15.10
2019-05-21T08:40:26.511Z,15.10
2019-05-21T08:42:55.827Z,15.00
2019-05-21T08:45:25.132Z,14.80
2019-05-21T08:47:54.452Z,15.10
2019-05-21T08:50:23.751Z,15.20
2019-05-21T08:52:53.263Z,15.20
2019-05-21T08:55:22.813Z,15.10
2019-05-21T08:58:06.537Z,15.10
2019-05-21T09:00:23.762Z,15.20
2019-05-21T09:02:53.162Z,15.20
2019-05-21T09:05:23.865Z,15.30
2019-05-21T09:07:54.220Z,15.50
2019-05-21T09:10:23.708Z,15.50
2019-05-21T09:12:53.038Z,15.50
2019-05-21T09:15:23.522Z,15.50
2019-05-21T09:17:52.823Z,15.40
2019-05-21T09:20:22.668Z,15.50
2019-05-21T09:22:52.337Z,15.50
2019-05-21T09:25:21.652Z,15.30
2019-05-21T09:27:51.157Z,15.40
2019-05-21T09:30:21.016Z,15.40
2019-05-21T09:32:50.327Z,15.50
2019-05-21T09:35:19.766Z,15.70
2019-05-21T09:37:49.106Z,15.80
2019-05-21T09:40:18.986Z,15.60
2019-05-21T09:42:48.314Z,15.60
2019-05-21T09:45:18.551Z,15.50
2019-05-21T09:47:47.874Z,15.30
2019-05-21T09:50:17.419Z,15.40
2019-05-21T09:52:46.794Z,15.50
2019-05-21T09:55:16.286Z,15.60
2019-05-21T09:58:02.505Z,15.60
2019-05-21T10:00:33.771Z,15.80
2019-05-21T10:03:08.143Z,15.60
2019-05-21T10:05:37.495Z,15.70
2019-05-21T10:08:06.955Z,15.60
2019-05-21T10:10:36.304Z,15.60
2019-05-21T10:13:05.692Z,15.60
2019-05-21T10:15:35.012Z,15.60
2019-05-21T10:18:04.587Z,15.60
2019-05-21T10:20:33.929Z,15.80
2019-05-21T10:23:03.238Z,16.00
2019-05-21T10:25:33.934Z,16.20
2019-05-21T10:28:03.252Z,16.40
2019-05-21T10:30:32.681Z,16.20
2019-05-21T10:33:02.055Z,16.20
2019-05-21T10:35:34.099Z,16.00
2019-05-21T10:38:06.055Z,15.90
2019-05-21T10:40:35.386Z,15.80
2019-05-21T10:43:04.743Z,15.80
2019-05-21T10:45:34.066Z,15.70
2019-05-21T10:48:03.385Z,15.50
2019-05-21T10:50:32.793Z,15.70
2019-05-21T10:53:03.276Z,15.70
2019-05-21T10:55:32.608Z,15.60
2019-05-21T10:58:02.031Z,15.90
2019-05-21T11:00:31.522Z,15.90
2019-05-21T11:03:02.545Z,15.90
2019-05-21T11:05:36.274Z,15.70
2019-05-21T11:08:23.694Z,15.90
2019-05-21T11:10:37.655Z,16.10
2019-05-21T11:13:07.237Z,16.00
2019-05-21T11:15:36.632Z,16.10
2019-05-21T11:18:11.040Z,15.90
2019-05-21T11:20:36.940Z,15.60
2019-05-21T11:23:06.397Z,15.80
2019-05-21T11:25:36.197Z,16.00
2019-05-21T11:28:06.978Z,16.10
2019-05-21T11:30:36.988Z,16.10
2019-05-21T11:33:06.364Z,16.00
2019-05-21T11:35:36.349Z,15.50
2019-05-21T11:38:05.980Z,15.60
2019-05-21T11:40:35.378Z,15.70
2019-05-21T11:43:04.886Z,15.80
2019-05-21T11:45:34.233Z,15.90
2019-05-21T11:48:03.530Z,15.90
2019-05-21T11:50:32.893Z,15.60
2019-05-21T11:53:02.657Z,15.70
2019-05-21T11:55:31.961Z,15.80
2019-05-21T11:58:01.285Z,16.00
2019-05-21T12:00:31.803Z,16.00
2019-05-21T12:03:01.263Z,15.70
2019-05-21T12:05:30.621Z,15.80
2019-05-21T12:08:00.998Z,15.80
2019-05-21T12:10:30.383Z,15.80
2019-05-21T12:12:59.716Z,15.80
2019-05-21T12:15:29.018Z,16.10
2019-05-21T12:17:58.404Z,16.00
2019-05-21T12:20:36.559Z,16.10
2019-05-21T12:22:59.620Z,16.00
2019-05-21T12:25:29.066Z,15.90
2019-05-21T12:27:58.722Z,15.80
2019-05-21T12:30:28.355Z,16.00
2019-05-21T12:32:57.843Z,16.00
2019-05-21T12:35:28.222Z,15.80
2019-05-21T12:37:57.703Z,16.00
2019-05-21T12:40:27.087Z,15.90
2019-05-21T12:42:56.397Z,15.90
2019-05-21T12:45:25.793Z,16.00
2019-05-21T12:47:55.103Z,16.00
2019-05-21T12:50:25.265Z,15.90
2019-05-21T12:52:54.644Z,15.90
2019-05-21T12:55:23.966Z,16.10
2019-05-21T12:57:53.282Z,16.00
2019-05-21T13:00:25.858Z,15.90
2019-05-21T13:02:55.223Z,15.80
2019-05-21T13:05:25.170Z,15.90
2019-05-21T13:07:54.526Z,16.10
2019-05-21T13:10:26.748Z,16.10
2019-05-21T13:12:55.171Z,15.90
2019-05-21T13:15:24.613Z,15.40
2019-05-21T13:17:53.995Z,15.00
2019-05-21T13:20:23.467Z,15.10
2019-05-21T13:22:52.882Z,15.30
2019-05-21T13:25:22.211Z,15.40
2019-05-21T13:27:51.519Z,15.20
2019-05-21T13:30:21.689Z,15.20
2019-05-21T13:32:51.087Z,15.30
2019-05-21T13:35:20.392Z,15.50
2019-05-21T13:37:49.693Z,15.40
2019-05-21T13:40:21.261Z,15.40
2019-05-21T13:42:50.554Z,15.40
2019-05-21T13:45:19.934Z,15.50
2019-05-21T13:47:51.378Z,15.50
2019-05-21T13:50:20.857Z,15.60
2019-05-21T13:52:50.169Z,15.80
2019-05-21T13:55:19.682Z,16.00
2019-05-21T13:57:49.062Z,16.00
2019-05-21T14:00:23.860Z,15.80
2019-05-21T14:02:53.378Z,15.70
2019-05-21T14:05:23.714Z,15.70
2019-05-21T14:07:52.997Z,15.80
2019-05-21T14:10:22.353Z,15.60
2019-05-21T14:12:51.835Z,15.50
2019-05-21T14:15:21.174Z,15.50
2019-05-21T14:17:50.503Z,15.70
2019-05-21T14:20:20.527Z,15.80
2019-05-21T14:22:49.864Z,15.80
2019-05-21T14:25:19.236Z,15.70
2019-05-21T14:27:48.544Z,15.70
2019-05-21T14:30:18.345Z,15.90
2019-05-21T14:32:47.668Z,15.90
2019-05-21T14:35:17.015Z,15.90
2019-05-21T14:37:46.440Z,16.00
2019-05-21T14:40:30.937Z,15.80
2019-05-21T14:42:59.388Z,15.60
2019-05-21T14:45:19.032Z,15.50
2019-05-21T14:47:48.447Z,15.40
2019-05-21T14:50:19.021Z,15.40
2019-05-21T14:52:52.164Z,15.40
2019-05-21T14:55:19.544Z,15.50
2019-05-21T14:57:48.888Z,15.30
2019-05-21T15:00:32.499Z,15.50
2019-05-21T15:03:01.838Z,15.00
2019-05-21T15:05:31.618Z,15.30
2019-05-21T15:08:01.019Z,15.40
2019-05-21T15:10:47.343Z,15.30
2019-05-21T15:13:05.939Z,15.40
2019-05-21T15:15:34.563Z,15.40
2019-05-21T15:18:04.242Z,15.50
2019-05-21T15:20:44.353Z,15.60
2019-05-21T15:23:14.795Z,15.80
2019-05-21T15:25:44.206Z,15.70
2019-05-21T15:28:13.613Z,15.60
2019-05-21T15:30:43.082Z,15.80
2019-05-21T15:33:12.946Z,15.50
2019-05-21T15:35:44.219Z,15.50
2019-05-21T15:38:13.697Z,15.80
2019-05-21T15:40:43.037Z,15.90
2019-05-21T15:43:12.486Z,15.80
2019-05-21T15:45:42.104Z,15.90
2019-05-21T15:48:11.411Z,15.60
2019-05-21T15:50:40.718Z,15.60
2019-05-21T15:53:10.027Z,15.70
2019-05-21T15:55:39.352Z,15.80
2019-05-21T15:58:08.845Z,15.90
2019-05-21T16:00:38.152Z,15.90
2019-05-21T16:03:07.454Z,15.90
2019-05-21T16:05:37.731Z,15.80
2019-05-21T16:08:07.053Z,15.60
2019-05-21T16:10:36.353Z,15.90
2019-05-21T16:13:05.665Z,15.90
2019-05-21T16:15:35.052Z,15.70
2019-05-21T16:18:04.369Z,15.80
2019-05-21T16:20:33.696Z,15.70
2019-05-21T16:23:03.154Z,15.50
2019-05-21T16:25:32.491Z,15.30
2019-05-21T16:28:01.873Z,15.10
2019-05-21T16:30:32.225Z,15.30
2019-05-21T16:33:02.544Z,15.30
2019-05-21T16:35:33.444Z,15.40
2019-05-21T16:38:02.752Z,15.30
2019-05-21T16:40:32.066Z,15.40
2019-05-21T16:43:01.409Z,15.50
2019-05-21T16:45:30.895Z,15.50
2019-05-21T16:48:00.473Z,15.60
2019-05-21T16:50:29.886Z,15.70
2019-05-21T16:52:59.211Z,15.70
2019-05-21T16:55:28.548Z,15.80
2019-05-21T16:57:57.927Z,15.50
2019-05-21T17:00:27.775Z,15.60
2019-05-21T17:03:09.489Z,15.40
2019-05-21T17:05:38.795Z,15.30
2019-05-21T17:08:08.248Z,15.30
2019-05-21T17:10:37.570Z,15.30
2019-05-21T17:13:06.971Z,15.30
2019-05-21T17:15:37.506Z,15.50
2019-05-21T17:18:06.826Z,15.40
2019-05-21T17:20:36.227Z,15.50
2019-05-21T17:23:05.541Z,15.60
2019-05-21T17:25:34.952Z,15.60
2019-05-21T17:28:04.414Z,15.40
2019-05-21T17:30:33.726Z,15.40
2019-05-21T17:33:03.068Z,15.50
2019-05-21T17:35:32.459Z,15.60
2019-05-21T17:38:01.805Z,15.50
2019-05-21T17:40:31.127Z,15.50
2019-05-21T17:43:00.483Z,15.50
2019-05-21T17:45:29.819Z,15.30
2019-05-21T17:47:59.185Z,15.10
2019-05-21T17:50:28.528Z,15.20
2019-05-21T17:52:57.903Z,15.50
2019-05-21T17:55:27.925Z,15.50
2019-05-21T17:57:57.271Z,15.50
2019-05-21T18:00:28.611Z,15.60
2019-05-21T18:02:58.467Z,15.70
2019-05-21T18:05:29.037Z,15.70
2019-05-21T18:07:59.027Z,15.50
2019-05-21T18:10:29.306Z,15.30
2019-05-21T18:12:59.208Z,15.40
2019-05-21T18:15:28.619Z,15.30
2019-05-21T18:17:58.131Z,15.20
2019-05-21T18:20:27.694Z,15.20
2019-05-21T18:22:57.017Z,15.30
2019-05-21T18:25:26.319Z,15.50
2019-05-21T18:27:55.710Z,15.60
2019-05-21T18:30:25.191Z,15.70
2019-05-21T18:32:55.309Z,15.50
2019-05-21T18:35:24.695Z,15.40
2019-05-21T18:37:54.376Z,15.50
2019-05-21T18:40:23.679Z,15.50
2019-05-21T18:42:53.169Z,15.40
2019-05-21T18:45:22.495Z,15.60
2019-05-21T18:47:51.948Z,15.80
2019-05-21T18:50:34.717Z,15.80
2019-05-21T18:52:52.484Z,15.90
2019-05-21T18:55:22.199Z,15.50
2019-05-21T18:57:51.652Z,15.40
2019-05-21T19:00:21.908Z,15.30
2019-05-21T19:02:51.418Z,15.60
2019-05-21T19:05:20.755Z,15.60
2019-05-21T19:07:50.102Z,15.70
2019-05-21T19:10:19.689Z,15.60
2019-05-21T19:12:49.414Z,15.20
2019-05-21T19:15:19.593Z,15.30
2019-05-21T19:17:48.970Z,15.50
2019-05-21T19:20:18.433Z,15.60
2019-05-21T19:22:49.745Z,15.60
2019-05-21T19:25:19.238Z,15.50
2019-05-21T19:27:48.544Z,15.70
2019-05-21T19:30:18.196Z,15.90
2019-05-21T19:32:47.915Z,15.90
2019-05-21T19:35:17.594Z,15.90
2019-05-21T19:37:46.914Z,15.90
2019-05-21T19:40:16.382Z,15.90
2019-05-21T19:42:55.112Z,15.90
2019-05-21T19:45:17.668Z,15.70
2019-05-21T19:47:47.188Z,15.40
2019-05-21T19:50:17.458Z,15.40
2019-05-21T19:52:47.829Z,15.20
2019-05-21T19:55:17.718Z,15.20
2019-05-21T19:57:47.236Z,15.30
2019-05-21T20:00:19.932Z,15.50
2019-05-21T20:02:49.252Z,15.40
2019-05-21T20:05:18.750Z,15.40
2019-05-21T20:07:49.083Z,15.50
2019-05-21T20:10:18.434Z,15.60
2019-05-21T20:12:48.005Z,15.70
2019-05-21T20:15:18.982Z,15.50
2019-05-21T20:17:51.082Z,15.60
2019-05-21T20:20:22.161Z,15.60
2019-05-21T20:22:51.870Z,15.70
2019-05-21T20:25:22.437Z,15.60
2019-05-21T20:27:52.798Z,15.60
2019-05-21T20:30:24.165Z,15.60
2019-05-21T20:32:54.141Z,15.50
2019-05-21T20:35:25.315Z,15.60
2019-05-21T20:37:54.995Z,15.80
2019-05-21T20:40:25.735Z,15.90
2019-05-21T20:42:55.323Z,15.90
2019-05-21T20:45:25.264Z,15.90
2019-05-21T20:47:55.802Z,15.70
2019-05-21T20:50:25.188Z,15.70
2019-05-21T20:52:54.691Z,15.70
2019-05-21T20:55:25.684Z,15.80
2019-05-21T20:57:56.882Z,15.90
2019-05-21T21:00:30.583Z,16.10
2019-05-21T21:03:00.460Z,16.10
2019-05-21T21:05:30.734Z,15.90
2019-05-21T21:08:00.222Z,15.90
2019-05-21T21:10:30.598Z,16.00
2019-05-21T21:13:02.251Z,15.90
2019-05-21T21:15:31.606Z,15.90
2019-05-21T21:18:01.420Z,15.90
2019-05-21T21:20:32.266Z,16.00
2019-05-21T21:23:02.112Z,16.10
2019-05-21T21:25:32.015Z,16.10
2019-05-21T21:28:01.618Z,16.10
2019-05-21T21:30:31.755Z,16.10
2019-05-21T21:33:01.543Z,16.20
2019-05-21T21:35:31.279Z,16.30
2019-05-21T21:38:03.855Z,16.30
2019-05-21T21:40:33.329Z,16.10
2019-05-21T21:43:02.669Z,16.20
2019-05-21T21:45:33.064Z,16.20
2019-05-21T21:48:02.543Z,16.10
2019-05-21T21:50:33.235Z,16.10
2019-05-21T21:53:02.882Z,16.10
2019-05-21T21:55:32.251Z,16.00
2019-05-21T21:58:02.726Z,15.90
2019-05-21T22:01:00.641Z,16.00
2019-05-21T22:03:32.439Z,16.10
2019-05-21T22:06:04.148Z,16.00
2019-05-21T22:08:33.936Z,15.90
2019-05-21T22:11:03.918Z,15.90
2019-05-21T22:13:33.769Z,16.00
2019-05-21T22:16:04.359Z,15.80
2019-05-21T22:18:34.802Z,15.60
2019-05-21T22:21:04.255Z,15.70
2019-05-21T22:23:33.648Z,15.70
2019-05-21T22:26:03.035Z,15.70
2019-05-21T22:28:34.330Z,15.80
2019-05-21T22:31:03.837Z,15.90
2019-05-21T22:33:33.648Z,16.00
2019-05-21T22:36:03.311Z,16.00
2019-05-21T22:38:32.756Z,15.90
2019-05-21T22:41:02.123Z,15.90
2019-05-21T22:43:31.714Z,15.80
2019-05-21T22:46:01.107Z,15.80
2019-05-21T22:48:30.418Z,15.90
2019-05-21T22:50:59.797Z,15.90
2019-05-21T22:53:30.881Z,15.90
2019-05-21T22:56:00.294Z,15.90
2019-05-21T22:58:29.662Z,15.90
2019-05-21T23:01:00.287Z,15.90
2019-05-21T23:03:29.660Z,15.90
2019-05-21T23:06:00.162Z,15.80
2019-05-21T23:08:29.463Z,15.80
2019-05-21T23:10:58.865Z,15.80
2019-05-21T23:13:28.227Z,15.80
2019-05-21T23:15:58.863Z,15.80
2019-05-21T23:18:46.270Z,15.80
2019-05-21T23:21:26.357Z,15.60
2019-05-21T23:23:57.104Z,15.50
2019-05-21T23:26:26.483Z,15.50
2019-05-21T23:28:56.236Z,15.60
2019-05-21T23:31:26.032Z,15.70
2019-05-21T23:33:56.328Z,15.70
2019-05-21T23:36:26.092Z,15.70
2019-05-21T23:38:56.067Z,15.80
2019-05-21T23:41:26.715Z,15.80
2019-05-21T23:43:56.097Z,15.90
2019-05-21T23:46:26.711Z,15.90
2019-05-21T23:48:56.668Z,15.80
2019-05-21T23:51:25.975Z,15.80
2019-05-21T23:53:55.407Z,15.90
2019-05-21T23:56:26.071Z,15.90
2019-05-21T23:58:55.817Z,15.90
